Time;durP1;ratioP1;P1;durP2;ratioP2;P2;SDS_P1;SDS_P2;PMS_P1;PMS_P2;Temp;Humidity;BMP_temperature;BMP_pressure;BME280_temperature;BME280_humidity;BME280_pressure;Samples;Min_cycle;Max_cycle;Signal;HPM_P1;HPM_P2
2022/05/17 00:00:23;;;;;;;1.40;0.80;;;22.70;60.90;;;;;;4975395;28;20042;-16
2022/05/17 00:02:49;;;;;;;1.30;0.93;;;22.60;60.90;;;;;;4976604;28;20575;-14
2022/05/17 00:05:14;;;;;;;0.80;0.80;;;22.60;60.80;;;;;;4976991;28;20109;-15
2022/05/17 00:07:40;;;;;;;0.95;0.95;;;22.70;60.90;;;;;;4976556;28;20101;-16
2022/05/17 00:10:06;;;;;;;1.00;0.85;;;22.70;60.70;;;;;;4971936;28;20071;-14
2022/05/17 00:12:32;;;;;;;0.98;0.98;;;22.70;60.80;;;;;;4957775;28;20050;-15
2022/05/17 00:14:58;;;;;;;0.82;0.82;;;22.60;60.80;;;;;;4967280;28;20058;-14
2022/05/17 00:17:23;;;;;;;1.30;0.98;;;22.70;60.90;;;;;;4963840;28;20047;-15
2022/05/17 00:19:49;;;;;;;0.88;0.88;;;22.60;60.90;;;;;;4959324;28;20035;-14
2022/05/17 00:22:14;;;;;;;0.90;0.90;;;22.60;60.70;;;;;;4974769;28;20049;-15
2022/05/17 00:24:40;;;;;;;0.80;0.80;;;22.60;61.00;;;;;;4975034;28;20054;-16
2022/05/17 00:27:06;;;;;;;3.67;1.00;;;22.60;61.00;;;;;;4976908;28;20039;-15
2022/05/17 00:29:31;;;;;;;1.23;1.00;;;22.60;60.90;;;;;;4975491;28;20054;-14
2022/05/17 00:31:57;;;;;;;1.38;1.27;;;22.60;60.90;;;;;;4975507;28;20059;-15
2022/05/17 00:34:23;;;;;;;0.95;0.90;;;22.60;61.00;;;;;;4975800;28;20049;-15
2022/05/17 00:36:48;;;;;;;1.17;1.08;;;22.60;60.90;;;;;;4975953;28;20034;-15
2022/05/17 00:39:14;;;;;;;1.00;0.90;;;22.60;60.80;;;;;;4976620;28;20043;-15
2022/05/17 00:41:40;;;;;;;2.40;0.90;;;22.60;60.80;;;;;;4975975;28;20066;-15
2022/05/17 00:46:57;;;;;;;1.10;1.00;;;22.60;60.80;;;;;;4975559;28;20108;-15
2022/05/17 00:49:35;;;;;;;4.07;1.00;;;22.60;60.80;;;;;;4976584;28;20039;-14
2022/05/17 00:52:04;;;;;;;1.17;1.08;;;22.60;61.70;;;;;;4975286;28;20062;-15
2022/05/17 00:54:29;;;;;;;0.82;0.82;;;22.60;60.90;;;;;;4976101;28;20106;-15
2022/05/17 00:57:06;;;;;;;1.38;1.27;;;22.60;60.90;;;;;;4974659;28;20523;-15
2022/05/17 00:59:32;;;;;;;1.42;0.80;;;22.60;60.90;;;;;;4975487;28;20110;-15
2022/05/17 01:01:57;;;;;;;1.17;1.17;;;22.50;60.90;;;;;;4974155;28;20778;-14
2022/05/17 01:04:23;;;;;;;1.00;0.77;;;22.50;60.90;;;;;;4973634;28;20419;-15
2022/05/17 01:06:52;;;;;;;2.58;1.10;;;22.50;60.80;;;;;;4974377;28;20113;-15
2022/05/17 01:09:17;;;;;;;1.33;1.20;;;22.50;60.90;;;;;;4958662;28;20045;-15
2022/05/17 01:11:43;;;;;;;3.28;1.20;;;22.50;60.80;;;;;;4948945;28;20520;-16
2022/05/17 01:16:53;;;;;;;0.73;0.73;;;22.50;60.70;;;;;;4974837;28;20061;-15
2022/05/17 01:19:19;;;;;;;2.08;0.90;;;22.50;60.80;;;;;;4969504;28;20043;-14
2022/05/17 01:21:45;;;;;;;0.90;0.90;;;22.50;60.80;;;;;;4969731;28;20508;-15
2022/05/17 01:24:10;;;;;;;0.73;0.73;;;22.50;60.90;;;;;;4956917;28;20047;-15
2022/05/17 01:26:38;;;;;;;1.08;0.98;;;22.50;60.80;;;;;;4955741;28;20066;-15
2022/05/17 01:29:06;;;;;;;1.15;1.00;;;22.50;60.90;;;;;;4972516;28;20054;-15
2022/05/17 01:31:32;;;;;;;0.93;0.82;;;22.60;60.80;;;;;;4976166;28;20053;-15
2022/05/17 01:33:57;;;;;;;0.90;0.90;;;22.50;60.80;;;;;;4975554;28;20071;-15
2022/05/17 01:36:23;;;;;;;0.80;0.80;;;22.50;61.60;;;;;;4974412;28;20085;-14
2022/05/17 01:38:53;;;;;;;1.27;1.17;;;22.50;60.80;;;;;;4975373;28;20043;-15
2022/05/17 01:41:19;;;;;;;1.17;1.10;;;22.50;60.80;;;;;;4975010;28;20043;-14
2022/05/17 01:43:45;;;;;;;0.93;0.93;;;22.50;60.90;;;;;;4975574;28;20137;-16
2022/05/17 01:46:11;;;;;;;2.55;1.40;;;22.50;60.90;;;;;;4970672;28;20074;-15
2022/05/17 01:48:38;;;;;;;0.80;0.80;;;22.50;60.80;;;;;;4977697;28;20054;-15
2022/05/17 01:51:07;;;;;;;1.63;0.98;;;22.50;60.80;;;;;;4978175;28;20984;-14
2022/05/17 01:53:33;;;;;;;1.30;1.20;;;22.50;60.70;;;;;;4977823;28;20097;-14
2022/05/17 01:56:01;;;;;;;1.00;1.00;;;22.50;60.70;;;;;;4977178;28;20043;-15
2022/05/17 01:58:26;;;;;;;0.75;0.75;;;22.50;60.80;;;;;;4978682;28;20054;-15
2022/05/17 02:00:53;;;;;;;0.90;0.80;;;22.50;60.80;;;;;;4978943;28;20325;-15
2022/05/17 02:03:18;;;;;;;1.20;1.10;;;22.50;60.70;;;;;;4978754;28;20038;-15
2022/05/17 02:05:44;;;;;;;0.80;0.80;;;22.50;60.60;;;;;;4979181;28;20077;-15
2022/05/17 02:08:09;;;;;;;0.82;0.82;;;22.50;60.80;;;;;;5009714;28;20043;-15
2022/05/17 02:10:35;;;;;;;0.80;0.80;;;22.50;60.60;;;;;;4979225;28;20046;-15
2022/05/17 02:13:01;;;;;;;1.52;1.33;;;22.50;60.60;;;;;;4977904;28;20511;-14
2022/05/17 02:15:26;;;;;;;1.13;1.02;;;22.50;60.70;;;;;;4977896;28;20046;-14
2022/05/17 02:17:52;;;;;;;1.08;1.08;;;22.50;60.70;;;;;;4977661;28;20043;-14
2022/05/17 02:20:18;;;;;;;0.68;0.68;;;22.50;60.60;;;;;;4978857;28;20150;-14
2022/05/17 02:22:43;;;;;;;1.10;1.00;;;22.50;60.60;;;;;;4978657;28;20117;-15
2022/05/17 02:25:10;;;;;;;0.80;0.80;;;22.50;60.70;;;;;;4977582;28;20055;-14
2022/05/17 02:27:35;;;;;;;0.90;0.90;;;22.50;60.60;;;;;;4978366;28;20039;-14
2022/05/17 02:30:01;;;;;;;1.10;1.00;;;22.50;60.60;;;;;;4978358;28;20039;-15
2022/05/17 02:32:27;;;;;;;1.00;1.00;;;22.50;60.70;;;;;;4978683;28;20122;-14
2022/05/17 02:34:52;;;;;;;1.35;1.25;;;22.40;60.70;;;;;;4977673;28;20043;-14
2022/05/17 02:37:18;;;;;;;0.98;0.90;;;22.50;60.80;;;;;;4978714;28;20547;-14
2022/05/17 02:39:45;;;;;;;0.82;0.82;;;22.50;60.70;;;;;;4978644;28;20129;-15
2022/05/17 02:42:11;;;;;;;1.63;1.00;;;22.50;60.70;;;;;;4977985;28;20062;-14
2022/05/17 02:44:36;;;;;;;1.00;1.00;;;22.50;60.80;;;;;;4977501;28;20085;-15
2022/05/17 02:47:02;;;;;;;0.80;0.80;;;22.40;60.70;;;;;;4977243;28;20511;-15
2022/05/17 02:49:27;;;;;;;1.08;1.08;;;22.40;60.70;;;;;;4977696;28;20046;-14
2022/05/17 02:51:54;;;;;;;0.93;0.93;;;22.40;60.70;;;;;;4968644;28;20050;-15
2022/05/17 02:54:21;;;;;;;1.58;0.90;;;22.40;60.70;;;;;;4978408;28;20503;-14
2022/05/17 02:56:46;;;;;;;1.35;1.15;;;22.50;60.70;;;;;;4978380;28;20047;-14
2022/05/17 02:59:17;;;;;;;1.08;1.08;;;22.50;60.70;;;;;;4959398;28;20102;-15
2022/05/17 03:01:43;;;;;;;1.08;0.90;;;22.40;60.70;;;;;;4977937;28;20050;-15
2022/05/17 03:04:09;;;;;;;0.75;0.75;;;22.40;60.70;;;;;;4977218;28;20054;-15
2022/05/17 03:06:34;;;;;;;0.90;0.90;;;22.40;60.70;;;;;;4977059;28;20039;-14
2022/05/17 03:09:00;;;;;;;1.10;0.77;;;22.40;60.70;;;;;;4977536;28;20034;-15
2022/05/17 03:11:25;;;;;;;0.95;0.80;;;22.40;60.70;;;;;;4977579;28;20085;-15
2022/05/17 03:13:51;;;;;;;0.98;0.80;;;22.40;60.70;;;;;;4976517;28;20049;-15
2022/05/17 03:16:17;;;;;;;1.77;0.90;;;22.40;60.70;;;;;;4978242;28;20051;-14
2022/05/17 03:18:42;;;;;;;0.85;0.82;;;22.40;60.70;;;;;;4978243;28;20125;-15
2022/05/17 03:21:08;;;;;;;0.80;0.80;;;22.40;60.70;;;;;;4973317;28;20528;-15
2022/05/17 03:23:34;;;;;;;0.93;0.80;;;22.40;60.70;;;;;;4973945;28;20055;-15
2022/05/17 03:25:59;;;;;;;0.70;0.70;;;22.40;60.60;;;;;;4976153;28;20043;-14
2022/05/17 03:28:25;;;;;;;1.20;1.10;;;22.40;60.60;;;;;;4977262;28;20050;-14
2022/05/17 03:30:50;;;;;;;1.27;1.17;;;22.40;60.70;;;;;;4977278;28;20047;-17
2022/05/17 03:33:16;;;;;;;0.70;0.70;;;22.40;60.70;;;;;;4977733;28;20711;-15
2022/05/17 03:35:42;;;;;;;0.88;0.88;;;22.40;60.70;;;;;;4975859;28;20058;-15
2022/05/17 03:38:07;;;;;;;1.20;1.15;;;22.40;60.70;;;;;;4976829;28;20408;-14
2022/05/17 03:40:33;;;;;;;0.82;0.82;;;22.40;60.60;;;;;;4977808;28;20065;-14
2022/05/17 03:42:58;;;;;;;0.90;0.90;;;22.40;60.60;;;;;;4976798;28;20049;-15
2022/05/17 03:45:24;;;;;;;0.95;0.90;;;22.40;60.60;;;;;;4977714;28;20585;-14
2022/05/17 03:47:49;;;;;;;1.00;0.90;;;22.40;60.70;;;;;;4977566;28;20083;-15
2022/05/17 03:50:15;;;;;;;0.98;0.98;;;22.40;60.50;;;;;;4967286;28;20412;-15
2022/05/17 03:52:41;;;;;;;0.77;0.77;;;22.40;60.50;;;;;;4975932;28;20082;-15
2022/05/17 03:55:07;;;;;;;0.80;0.80;;;22.40;61.40;;;;;;4976607;28;20043;-15
2022/05/17 03:57:33;;;;;;;0.90;0.90;;;22.40;60.70;;;;;;4976760;28;20047;-15
2022/05/17 03:59:58;;;;;;;0.95;0.93;;;22.40;60.70;;;;;;4975609;28;20054;-16
2022/05/17 04:02:24;;;;;;;1.25;1.00;;;22.40;60.70;;;;;;4962885;28;20035;-15
2022/05/17 04:04:56;;;;;;;1.10;1.10;;;22.30;60.70;;;;;;4976123;28;20126;-15
2022/05/17 04:07:22;;;;;;;1.02;0.93;;;22.40;60.70;;;;;;4976480;28;20039;-16
2022/05/17 04:09:48;;;;;;;0.80;0.80;;;22.40;60.70;;;;;;4962161;28;20043;-14
2022/05/17 04:12:13;;;;;;;0.90;0.80;;;22.40;60.60;;;;;;4976399;28;20055;-15
2022/05/17 04:14:39;;;;;;;1.00;1.00;;;22.40;60.60;;;;;;4977244;28;20045;-15
2022/05/17 04:17:05;;;;;;;0.85;0.80;;;22.30;60.60;;;;;;4990699;28;20105;-14
2022/05/17 04:19:30;;;;;;;0.90;0.90;;;22.40;60.60;;;;;;4976893;28;20081;-14
2022/05/17 04:21:58;;;;;;;1.20;0.93;;;22.40;60.60;;;;;;4976279;28;20046;-15
2022/05/17 04:24:24;;;;;;;0.80;0.80;;;22.30;60.50;;;;;;4968718;28;20592;-15
2022/05/17 04:26:50;;;;;;;0.80;0.80;;;22.30;60.70;;;;;;4957720;28;20035;-15
2022/05/17 04:29:16;;;;;;;0.98;0.93;;;22.30;60.70;;;;;;4971558;28;20559;-16
2022/05/17 04:31:41;;;;;;;0.90;0.90;;;22.30;60.70;;;;;;4976722;28;20046;-15
2022/05/17 04:34:07;;;;;;;1.20;1.20;;;22.30;60.70;;;;;;4975649;28;20047;-15
2022/05/17 04:36:33;;;;;;;0.93;0.93;;;22.30;60.70;;;;;;4975571;28;20404;-15
2022/05/17 04:39:00;;;;;;;0.98;0.98;;;22.30;60.60;;;;;;4971073;28;20051;-15
2022/05/17 04:41:26;;;;;;;0.90;0.90;;;22.30;60.50;;;;;;4957347;28;20043;-15
2022/05/17 04:43:51;;;;;;;2.88;1.00;;;22.30;60.60;;;;;;4967460;28;20047;-15
2022/05/17 04:46:17;;;;;;;0.90;0.90;;;22.30;60.50;;;;;;4970311;28;20047;-15
2022/05/17 04:48:43;;;;;;;1.00;1.00;;;22.30;60.50;;;;;;4967705;28;20125;-15
2022/05/17 04:51:09;;;;;;;1.35;0.88;;;22.30;60.50;;;;;;4976030;28;20045;-15
2022/05/17 04:53:36;;;;;;;1.92;0.70;;;22.30;60.50;;;;;;4975819;28;20439;-15
2022/05/17 04:56:02;;;;;;;0.90;0.90;;;22.30;60.50;;;;;;4975660;28;20066;-15
2022/05/17 04:58:27;;;;;;;0.82;0.82;;;22.30;60.50;;;;;;4975954;28;20590;-15
2022/05/17 05:00:53;;;;;;;0.80;0.80;;;22.30;60.60;;;;;;4976594;28;20141;-15
2022/05/17 05:03:19;;;;;;;1.10;1.10;;;22.30;60.50;;;;;;4990900;28;20078;-15
2022/05/17 05:05:45;;;;;;;1.30;1.20;;;22.20;60.90;;;;;;4975747;28;20058;-14
2022/05/17 05:08:10;;;;;;;1.33;0.95;;;22.10;61.40;;;;;;4974009;28;20061;-15
2022/05/17 05:10:36;;;;;;;2.78;1.88;;;21.90;61.30;;;;;;4975207;28;20043;-14
2022/05/17 05:13:02;;;;;;;2.17;1.95;;;21.80;61.60;;;;;;4975959;28;20047;-15
2022/05/17 05:15:28;;;;;;;2.08;1.98;;;21.40;62.30;;;;;;4976357;28;20050;-14
2022/05/17 05:17:54;;;;;;;2.20;2.00;;;21.30;62.50;;;;;;4976385;28;20046;-14
2022/05/17 05:20:19;;;;;;;1.90;1.80;;;21.20;62.70;;;;;;4972897;28;20081;-15
2022/05/17 05:22:45;;;;;;;2.33;2.00;;;21.20;63.00;;;;;;4973993;28;20057;-14
2022/05/17 05:25:12;;;;;;;2.57;2.29;;;21.10;63.30;;;;;;4631434;28;10001032;-15
2022/05/17 05:27:38;;;;;;;2.50;2.30;;;20.90;63.90;;;;;;4981313;28;20054;-15
2022/05/17 05:30:04;;;;;;;2.75;2.35;;;20.90;63.90;;;;;;4977082;28;20049;-15
2022/05/17 05:32:30;;;;;;;3.72;2.40;;;20.80;64.10;;;;;;4976127;28;20057;-14
2022/05/17 05:34:56;;;;;;;3.05;2.10;;;20.70;64.40;;;;;;4983974;28;20046;-15
2022/05/17 05:37:21;;;;;;;4.13;3.10;;;20.60;64.80;;;;;;4973111;28;20049;-14
2022/05/17 05:39:47;;;;;;;2.10;2.00;;;20.60;65.00;;;;;;4974163;28;20045;-14
2022/05/17 05:42:12;;;;;;;3.50;2.60;;;20.50;65.00;;;;;;4974610;28;20062;-15
2022/05/17 05:44:38;;;;;;;2.92;1.92;;;20.60;64.90;;;;;;4978931;28;20459;-14
2022/05/17 05:47:04;;;;;;;4.80;2.33;;;20.60;64.70;;;;;;4977067;28;20054;-14
2022/05/17 05:49:30;;;;;;;2.40;2.20;;;20.50;65.00;;;;;;4976901;28;20039;-14
2022/05/17 05:51:55;;;;;;;3.85;2.40;;;20.40;65.10;;;;;;4978951;28;20070;-16
2022/05/17 05:54:21;;;;;;;2.55;2.35;;;20.50;65.00;;;;;;4986127;28;20496;-15
2022/05/17 05:56:47;;;;;;;2.70;2.13;;;20.50;65.00;;;;;;4976075;28;20105;-14
2022/05/17 05:59:12;;;;;;;2.38;2.25;;;20.40;65.20;;;;;;4977699;28;20039;-18
2022/05/17 06:01:39;;;;;;;2.20;2.00;;;20.30;65.20;;;;;;4979480;28;20106;-16
2022/05/17 06:04:04;;;;;;;4.15;2.00;;;20.30;65.50;;;;;;4978839;28;20377;-17
2022/05/17 06:06:30;;;;;;;2.80;2.17;;;20.30;65.90;;;;;;4978584;28;20050;-15
2022/05/17 06:08:56;;;;;;;4.03;2.08;;;20.20;65.90;;;;;;4970676;28;20039;-16
2022/05/17 06:11:21;;;;;;;2.40;2.05;;;20.30;65.80;;;;;;4973528;28;20065;-15
2022/05/17 06:13:47;;;;;;;2.70;2.50;;;20.30;65.90;;;;;;4974234;28;20097;-15
2022/05/17 06:16:13;;;;;;;3.25;2.50;;;20.20;66.30;;;;;;4974061;28;20109;-15
2022/05/17 06:18:39;;;;;;;2.88;2.10;;;20.20;66.30;;;;;;4975613;28;20054;-15
2022/05/17 06:21:05;;;;;;;2.70;2.50;;;20.00;66.30;;;;;;4973412;28;20693;-15
2022/05/17 06:23:31;;;;;;;3.10;2.10;;;20.10;67.00;;;;;;4973372;28;20561;-16
2022/05/17 06:25:57;;;;;;;4.28;2.10;;;20.20;66.50;;;;;;4968967;28;20050;-15
2022/05/17 06:28:23;;;;;;;2.85;1.98;;;20.20;66.10;;;;;;4973833;28;20047;-15
2022/05/17 06:30:49;;;;;;;3.13;2.47;;;20.20;66.20;;;;;;4973927;28;20074;-16
2022/05/17 06:33:15;;;;;;;5.40;2.28;;;20.30;66.00;;;;;;4967739;28;20182;-15
2022/05/17 06:35:45;;;;;;;2.47;1.88;;;20.20;66.10;;;;;;4999347;28;20055;-15
2022/05/17 06:38:10;;;;;;;2.60;2.42;;;20.10;66.90;;;;;;4974342;28;20049;-15
2022/05/17 06:40:37;;;;;;;2.13;1.90;;;20.00;66.80;;;;;;4973733;28;20559;-16
2022/05/17 06:43:03;;;;;;;2.20;2.00;;;20.10;66.50;;;;;;4969963;28;20047;-16
2022/05/17 06:45:29;;;;;;;1.88;1.70;;;20.20;66.50;;;;;;4972247;28;20058;-16
2022/05/17 06:47:54;;;;;;;2.70;2.05;;;20.20;66.40;;;;;;4970188;28;20079;-18
2022/05/17 06:50:20;;;;;;;2.15;2.00;;;20.30;66.30;;;;;;4973576;28;20074;-18
2022/05/17 06:52:46;;;;;;;5.70;2.10;;;20.30;66.10;;;;;;4974302;28;20504;-16
2022/05/17 06:55:12;;;;;;;5.95;1.85;;;20.40;66.30;;;;;;4974253;28;20061;-16
2022/05/17 06:57:38;;;;;;;2.20;2.10;;;20.30;66.10;;;;;;4982260;28;20050;-16
2022/05/17 07:00:05;;;;;;;2.83;2.25;;;20.30;66.20;;;;;;4967175;28;20063;-17
2022/05/17 07:02:32;;;;;;;4.68;1.83;;;20.40;65.80;;;;;;4975003;28;20035;-16
2022/05/17 07:04:59;;;;;;;3.05;1.70;;;20.60;65.00;;;;;;4975236;28;20831;-17
2022/05/17 07:07:26;;;;;;;1.52;1.40;;;20.80;64.40;;;;;;4973960;28;20404;-16
2022/05/17 07:15:20;;;;;;;;;;;20.70;65.10;;;;;;4975780;28;20127;-16
2022/05/17 07:17:47;;;;;;;1.20;1.05;;;20.70;65.10;;;;;;4977302;28;19922;-16
2022/05/17 07:20:13;;;;;;;1.92;1.40;;;20.70;64.90;;;;;;4977057;28;20129;-16
2022/05/17 07:22:38;;;;;;;1.50;1.30;;;20.70;64.80;;;;;;4975190;28;20196;-16
2022/05/17 07:25:04;;;;;;;1.63;1.35;;;20.80;64.60;;;;;;4975605;28;20042;-16
2022/05/17 07:27:30;;;;;;;2.33;1.58;;;20.80;64.10;;;;;;4975335;28;20049;-16
2022/05/17 07:29:56;;;;;;;2.42;1.20;;;20.80;64.30;;;;;;4976748;28;20035;-16
2022/05/17 07:32:21;;;;;;;2.47;1.50;;;20.90;63.90;;;;;;4976065;28;20118;-17
2022/05/17 07:34:47;;;;;;;1.20;1.10;;;21.00;63.70;;;;;;4976043;28;20078;-15
2022/05/17 07:37:13;;;;;;;1.60;1.23;;;21.10;63.40;;;;;;4976481;28;20045;-15
2022/05/17 07:39:39;;;;;;;1.45;1.00;;;21.10;63.20;;;;;;4976903;28;20038;-16
2022/05/17 07:42:05;;;;;;;1.30;1.20;;;21.10;63.00;;;;;;4976483;28;20046;-15
2022/05/17 07:44:31;;;;;;;3.50;1.27;;;21.10;63.00;;;;;;4975798;28;20047;-15
2022/05/17 07:46:57;;;;;;;1.50;1.20;;;21.20;63.10;;;;;;4975711;28;20043;-15
2022/05/17 07:49:23;;;;;;;2.00;0.95;;;21.20;62.70;;;;;;4975137;28;20097;-15
2022/05/17 07:51:48;;;;;;;1.70;1.60;;;21.30;62.50;;;;;;4976602;28;20046;-15
2022/05/17 07:54:14;;;;;;;2.72;1.50;;;21.30;62.60;;;;;;4976556;28;20069;-15
2022/05/17 07:56:40;;;;;;;4.20;1.80;;;21.30;62.50;;;;;;4975814;28;20055;-15
2022/05/17 07:59:05;;;;;;;2.00;1.30;;;21.30;62.40;;;;;;4975836;28;20125;-16
2022/05/17 08:01:31;;;;;;;2.60;1.70;;;21.40;62.50;;;;;;4976234;28;20055;-16
2022/05/17 08:03:57;;;;;;;1.63;1.40;;;21.30;62.40;;;;;;4971695;28;20043;-16
2022/05/17 08:06:22;;;;;;;4.18;1.70;;;21.40;62.30;;;;;;4955853;28;20055;-15
2022/05/17 08:08:48;;;;;;;2.30;1.67;;;21.40;62.10;;;;;;4957179;28;20059;-15
2022/05/17 08:11:14;;;;;;;4.43;1.70;;;21.40;62.20;;;;;;4956929;28;20070;-18
2022/05/17 08:13:39;;;;;;;1.70;1.38;;;21.40;62.30;;;;;;4966952;28;20042;-17
2022/05/17 08:16:05;;;;;;;2.17;1.65;;;21.50;62.30;;;;;;4971168;28;20039;-19
2022/05/17 08:18:30;;;;;;;3.15;1.40;;;21.50;62.10;;;;;;4961996;28;20065;-17
2022/05/17 08:20:56;;;;;;;1.40;1.30;;;21.50;62.10;;;;;;4964748;28;20085;-18
2022/05/17 08:23:22;;;;;;;2.00;1.50;;;21.50;62.20;;;;;;4957588;28;20051;-17
2022/05/17 08:28:31;;;;;;;1.75;1.33;;;21.50;62.10;;;;;;4961839;28;20118;-17
2022/05/17 08:30:57;;;;;;;3.10;1.13;;;21.60;62.10;;;;;;4962511;28;20084;-18
2022/05/17 08:33:26;;;;;;;3.13;1.67;;;21.60;62.00;;;;;;4959940;28;20051;-18
2022/05/17 08:35:52;;;;;;;1.70;1.25;;;21.60;61.80;;;;;;4961748;28;20129;-17
2022/05/17 08:38:21;;;;;;;4.72;1.50;;;21.70;61.70;;;;;;4961690;28;20513;-15
2022/05/17 08:41:14;;;;;;;1.20;1.10;;;21.70;61.70;;;;;;4962631;28;20051;-15
2022/05/17 08:43:53;;;;;;;2.65;1.20;;;21.70;61.60;;;;;;4958765;28;20062;-15
2022/05/17 08:46:49;;;;;;;2.05;1.23;;;21.70;61.50;;;;;;4973824;28;20050;-16
2022/05/17 08:49:22;;;;;;;1.83;1.15;;;21.80;61.10;;;;;;4972086;28;20061;-15
2022/05/17 08:51:57;;;;;;;1.50;1.35;;;21.80;61.20;;;;;;4967085;28;20504;-16
2022/05/17 08:54:30;;;;;;;1.35;1.13;;;21.70;61.10;;;;;;4973811;28;20167;-16
2022/05/17 08:57:20;;;;;;;3.20;1.10;;;21.70;61.10;;;;;;4974480;28;20078;-15
2022/05/17 08:59:47;;;;;;;1.45;1.10;;;21.70;61.10;;;;;;4974444;28;20046;-15
2022/05/17 09:02:44;;;;;;;1.77;1.08;;;21.80;61.20;;;;;;4974958;28;20046;-15
2022/05/17 09:05:40;;;;;;;1.25;1.10;;;21.70;61.10;;;;;;4975366;28;20130;-16
2022/05/17 09:08:14;;;;;;;1.30;1.00;;;21.70;61.10;;;;;;4975980;28;20492;-15
2022/05/17 09:10:41;;;;;;;;;;;21.80;61.00;;;;;;4976012;28;20047;-16
2022/05/17 09:13:15;;;;;;;4.00;1.00;;;21.80;61.00;;;;;;4989904;28;19918;-16
2022/05/17 09:15:42;;;;;;;1.20;1.02;;;21.80;61.00;;;;;;4987830;28;20042;-15
2022/05/17 09:18:11;;;;;;;1.08;0.98;;;21.80;60.70;;;;;;4974041;28;20423;-15
2022/05/17 09:20:38;;;;;;;0.80;0.80;;;21.90;60.50;;;;;;4956040;28;20508;-16
2022/05/17 09:23:04;;;;;;;1.70;1.40;;;21.90;60.40;;;;;;4975029;28;20078;-16
2022/05/17 09:25:51;;;;;;;1.08;0.85;;;21.90;60.60;;;;;;4974465;28;20050;-15
2022/05/17 09:28:19;;;;;;;4.35;0.80;;;22.00;60.60;;;;;;4972061;28;20038;-15
2022/05/17 09:30:45;;;;;;;1.80;1.30;;;22.00;60.50;;;;;;4975633;28;20062;-15
2022/05/17 09:33:12;;;;;;;1.40;1.10;;;22.00;60.80;;;;;;4975404;28;20152;-17
2022/05/17 09:36:00;;;;;;;1.23;1.00;;;22.00;61.10;;;;;;4976107;28;20038;-16
2022/05/17 09:38:29;;;;;;;1.73;0.70;;;22.00;60.80;;;;;;4974177;28;20562;-16
2022/05/17 09:40:56;;;;;;;1.10;1.00;;;22.00;60.90;;;;;;4964681;28;20049;-15
2022/05/17 09:43:55;;;;;;;2.17;1.45;;;22.00;61.80;;;;;;4973106;28;20066;-16
2022/05/17 09:46:42;;;;;;;2.22;1.17;;;22.10;61.00;;;;;;4969963;28;20043;-15
2022/05/17 09:52:32;;;;;;;1.45;0.90;;;22.00;60.90;;;;;;4961170;28;20050;-16
2022/05/17 09:55:20;;;;;;;1.20;1.10;;;22.00;61.00;;;;;;4975585;28;20046;-15
2022/05/17 09:58:13;;;;;;;1.05;0.68;;;22.00;60.90;;;;;;4974600;28;20117;-16
2022/05/17 10:00:49;;;;;;;0.95;0.73;;;22.00;60.90;;;;;;4974993;28;20050;-15
2022/05/17 10:03:15;;;;;;;1.90;1.10;;;22.00;60.90;;;;;;4973907;28;20042;-16
2022/05/17 10:05:41;;;;;;;0.93;0.70;;;22.00;60.90;;;;;;4958368;28;20054;-17
2022/05/17 10:08:12;;;;;;;3.83;1.08;;;22.00;60.80;;;;;;4967446;28;20051;-16
2022/05/17 10:10:43;;;;;;;0.82;0.70;;;22.00;60.80;;;;;;4987927;28;20414;-17
2022/05/17 10:13:19;;;;;;;3.05;0.95;;;22.10;60.70;;;;;;4978343;28;20057;-15
2022/05/17 10:15:47;;;;;;;1.48;0.90;;;22.10;60.50;;;;;;4962766;28;20094;-15
2022/05/17 10:18:34;;;;;;;0.73;0.73;;;22.10;60.30;;;;;;4978466;28;20138;-14
2022/05/17 10:21:13;;;;;;;1.00;0.77;;;22.10;60.40;;;;;;4978181;28;20049;-17
2022/05/17 10:23:49;;;;;;;2.92;0.70;;;22.10;60.30;;;;;;4616509;28;10000170;-15
2022/05/17 10:26:17;;;;;;;1.42;0.70;;;22.20;60.00;;;;;;4966049;28;20054;-15
2022/05/17 10:28:52;;;;;;;1.02;0.60;;;22.20;59.70;;;;;;4979554;28;20050;-15
2022/05/17 10:31:20;;;;;;;0.95;0.50;;;22.20;59.60;;;;;;4975306;28;20105;-16
2022/05/17 10:33:49;;;;;;;0.47;0.47;;;22.20;59.40;;;;;;4974928;28;20595;-15
2022/05/17 10:36:37;;;;;;;0.68;0.68;;;22.20;59.60;;;;;;4973046;28;20051;-16
2022/05/17 10:39:11;;;;;;;3.83;0.40;;;22.10;59.90;;;;;;4980038;28;20447;-15
2022/05/17 10:41:37;;;;;;;1.25;0.70;;;22.10;60.20;;;;;;4966529;28;20145;-14
2022/05/17 10:44:03;;;;;;;0.75;0.50;;;22.10;60.30;;;;;;4967839;28;20042;-15
2022/05/17 10:46:36;;;;;;;0.55;0.55;;;22.10;60.30;;;;;;4971608;28;20058;-16
2022/05/17 10:49:19;;;;;;;0.70;0.60;;;22.20;59.90;;;;;;4974570;28;20630;-15
2022/05/17 10:52:00;;;;;;;2.28;0.50;;;22.20;60.10;;;;;;4972473;28;20053;-15
2022/05/17 10:54:31;;;;;;;1.27;0.52;;;22.10;60.10;;;;;;4996829;28;20125;-15
2022/05/17 10:57:03;;;;;;;0.60;0.60;;;22.10;60.20;;;;;;4974556;28;20086;-15
2022/05/17 11:00:09;;;;;;;1.08;0.65;;;22.10;60.40;;;;;;4973776;28;20046;-15
2022/05/17 11:03:32;;;;;;;0.50;0.50;;;22.10;60.50;;;;;;4971978;28;20059;-15
2022/05/17 11:06:26;;;;;;;0.50;0.50;;;22.20;60.60;;;;;;4942782;28;20042;-15
2022/05/17 11:09:07;;;;;;;0.43;0.43;;;22.10;60.70;;;;;;4952385;28;20494;-15
2022/05/17 11:12:05;;;;;;;0.80;0.40;;;22.20;60.60;;;;;;4982844;28;20405;-15
2022/05/17 11:14:36;;;;;;;0.52;0.43;;;22.20;60.70;;;;;;4971522;28;20054;-15
2022/05/17 11:17:05;;;;;;;0.60;0.40;;;22.20;60.70;;;;;;4968944;28;20047;-15
2022/05/17 11:20:04;;;;;;;1.13;0.65;;;22.20;60.70;;;;;;4970955;28;20432;-15
2022/05/17 11:22:55;;;;;;;0.57;0.52;;;22.20;60.90;;;;;;4972479;28;20045;-15
2022/05/17 11:25:48;;;;;;;0.40;0.40;;;22.30;60.40;;;;;;4972299;28;20070;-16
2022/05/17 11:28:33;;;;;;;0.93;0.80;;;22.30;60.50;;;;;;4976042;28;20047;-15
2022/05/17 11:31:07;;;;;;;0.95;0.50;;;22.30;60.70;;;;;;4977214;28;20046;-15
2022/05/17 11:33:36;;;;;;;0.40;0.40;;;22.30;60.70;;;;;;4975030;28;20062;-14
2022/05/17 11:36:02;;;;;;;0.50;0.50;;;22.30;60.60;;;;;;4973777;28;20101;-15
2022/05/17 11:38:39;;;;;;;0.50;0.50;;;22.30;60.40;;;;;;4975583;28;20054;-15
2022/05/17 11:41:18;;;;;;;0.57;0.57;;;22.30;60.60;;;;;;4972271;28;20042;-16
2022/05/17 11:43:47;;;;;;;0.50;0.47;;;22.30;60.50;;;;;;4965989;28;20042;-15
2022/05/17 11:46:24;;;;;;;1.02;0.60;;;22.30;60.70;;;;;;4969362;28;20050;-15
2022/05/17 11:49:16;;;;;;;0.52;0.52;;;22.30;60.70;;;;;;4975550;28;20059;-15
2022/05/17 11:51:57;;;;;;;0.50;0.50;;;22.30;60.70;;;;;;4965610;28;20078;-15
2022/05/17 11:54:45;;;;;;;1.38;0.60;;;22.30;60.70;;;;;;4975863;28;20054;-15
2022/05/17 11:57:16;;;;;;;1.45;0.60;;;22.30;60.70;;;;;;4976854;28;20050;-15
2022/05/17 11:59:54;;;;;;;1.30;0.60;;;22.30;60.70;;;;;;4957460;28;20497;-15
2022/05/17 12:02:19;;;;;;;0.63;0.63;;;22.30;60.70;;;;;;4975069;28;20050;-16
2022/05/17 12:04:46;;;;;;;0.60;0.60;;;22.30;60.60;;;;;;4975708;28;20054;-15
2022/05/17 12:07:21;;;;;;;0.35;0.35;;;22.30;60.60;;;;;;4976689;28;20038;-15
2022/05/17 12:09:51;;;;;;;0.93;0.60;;;22.40;60.70;;;;;;4975903;28;20045;-15
2022/05/17 12:12:41;;;;;;;0.50;0.50;;;22.40;60.80;;;;;;4970634;28;20039;-15
2022/05/17 12:15:10;;;;;;;0.70;0.70;;;22.40;60.70;;;;;;4970069;28;20039;-15
2022/05/17 12:17:58;;;;;;;0.60;0.60;;;22.50;60.50;;;;;;4973445;28;20050;-16
2022/05/17 12:20:35;;;;;;;0.55;0.55;;;22.50;60.50;;;;;;4994873;28;20057;-14
2022/05/17 12:23:22;;;;;;;0.55;0.55;;;22.50;60.30;;;;;;4990994;28;20054;-15
2022/05/17 12:25:56;;;;;;;0.70;0.50;;;22.50;60.50;;;;;;4976087;28;20047;-14
2022/05/17 12:28:24;;;;;;;1.45;0.60;;;22.50;60.60;;;;;;4973087;28;20066;-17
2022/05/17 12:30:54;;;;;;;2.33;0.70;;;22.40;60.60;;;;;;4969416;28;20066;-15
2022/05/17 12:33:23;;;;;;;1.75;0.80;;;22.50;60.60;;;;;;4968447;28;20513;-15
2022/05/17 12:35:49;;;;;;;1.58;0.75;;;22.50;60.50;;;;;;4967341;28;20051;-15
2022/05/17 12:44:06;;;;;;;1.42;0.90;;;22.50;60.50;;;;;;4973723;28;20057;-16
2022/05/17 12:46:35;;;;;;;1.20;1.00;;;22.50;60.60;;;;;;4973656;28;20046;-15
2022/05/17 12:49:02;;;;;;;1.90;0.70;;;22.50;60.60;;;;;;4973980;28;20415;-16
2022/05/17 12:51:28;;;;;;;1.60;0.65;;;22.50;60.70;;;;;;4973635;28;20039;-16
2022/05/17 12:53:54;;;;;;;0.70;0.68;;;22.60;60.80;;;;;;4958177;28;20107;-16
2022/05/17 12:56:19;;;;;;;0.82;0.68;;;22.60;60.70;;;;;;4976114;28;20057;-17
2022/05/17 12:58:56;;;;;;;0.60;0.60;;;22.60;60.70;;;;;;4974290;28;20043;-16
2022/05/17 13:01:29;;;;;;;0.82;0.82;;;22.60;61.30;;;;;;4972259;28;20054;-17
2022/05/17 13:03:57;;;;;;;0.70;0.70;;;22.60;60.70;;;;;;4974356;28;20058;-16
2022/05/17 13:06:38;;;;;;;1.02;0.90;;;22.60;60.70;;;;;;4975516;28;20057;-17
2022/05/17 13:09:04;;;;;;;1.65;0.63;;;22.60;60.60;;;;;;4969513;28;20042;-16
2022/05/17 13:11:29;;;;;;;1.13;0.85;;;22.60;60.50;;;;;;4959292;28;20070;-16
2022/05/17 13:13:58;;;;;;;0.80;0.80;;;22.60;60.50;;;;;;4960795;28;20047;-16
2022/05/17 13:16:30;;;;;;;1.10;0.55;;;22.60;60.40;;;;;;4964959;28;20069;-16
2022/05/17 13:18:57;;;;;;;1.85;0.80;;;22.60;60.40;;;;;;4942270;28;20059;-16
2022/05/17 13:21:22;;;;;;;0.70;0.70;;;22.70;60.40;;;;;;4960098;28;20410;-17